Sand Point Airport
PASD : now visible

Airfield :











YOU CAN JOIN US ON...

 
LOGIN :

Register | Disclaimer

   EN    FR    IT 

 









Legend :    VFR   Marginal VFR   IFR   Intensive IFR   Very Intensive IFR
Visi :
Ceiling :
>= 8 km
>= 3000ft
5 to 8 km
1000 to 3000 ft
1500m to 5 km
500 to 1000 ft
800 to 1500m
200 to 500 ft
< 800m
< 200 ft
Symbols :   Thunderstorms  Fog  Heavy snow  Heavy precipitations  Wind > 20 kt






- Airport Elevation : 21 ft
- IATA code : SDP


PASD - Sand Point

CURRENT METAR :
  • 230105Z 07008KT 360V110 2SM -RA BR BKN011 OVC016 09/08 A2963 RMK AO2 VIS SE-S 1 3/4 PNO $

EXPIRED METARs :
  • 230058Z VRB06KT 2 1/2SM -RA BR BKN011 OVC016 09/08 A2964 RMK AO2 VIS SE-S 1 3/4 PNO $
  • 230027Z 05009G17KT 320V090 2 1/2SM -RA BR OVC011 09/08 A2966 RMK AO2 CIG 007V012 PNO $
  • 230015Z 04008G16KT 360V070 5SM -RA BR BKN011 OVC016 09/08 A2968 RMK AO2 PNO $
  • 230007Z 05009G16KT 020V080 3SM -RA BR BKN011 OVC016 09/08 A2970 RMK AO2 PNO $
  • 222358Z 04009G15KT 5SM -RA BR SCT013 BKN019 OVC031 09/08 A2972 RMK AO2 PRESRR PNO $
  • 222351Z 07010G16KT 020V110 5SM -RA BR SCT013 BKN019 OVC028 09/08 A2968 RMK AO2 PRESRR PNO $
  • 222258Z 05011G22KT 020V100 2 1/2SM -RA BR SCT010 BKN015 OVC022 09/08 A2968 RMK AO2 PRESFR PNO $
  • 222256Z 05011G22KT 020V120 2 1/2SM -RA BR SCT010 BKN015 OVC022 09/08 A2969 RMK AO2 PK WND 08026/2228 SLP054 T00890078 PNO $

TAF PASD
Valid from the 23 at 00:00 until the 24 at 00:00 UTC


222333Z 2300/2324 05012G22KT 3SM -RA BR OVC015
FM230200 14010KT 6SM -RA OVC015
FM231000 18007KT P6SM OVC050
FM231400 17011KT P6SM OVC025
FM231800 17010G20KT 6SM BR OVC015 AMD LTD TO CLD VIS AND WIND
PAZA FIR / North America



MET'MAP, your aeronautical weather chart ! - Copyright ORBIFLY December 2007 - Disclaimer

ORBIFLY MET'MAP TEAM :

Programming & Development : Alexandra Zaïnal
Concept & original design : Baudouin d'Aumeries
Assistance for programming : Marc-Olivier Méhu
Technical & hardware support : Manuel Goepfert

Contact : metmap@orbifly.com




SOURCES & CREDITS :

   NOAA       Earth
Advisory